This is the latest recevied weather packets stored in our database for station/object F4MLU-13. If no packets are shown the sender has not sent any weather packets the latest 10 day(s).
| Time | Temp. | Humidity | Pressure | Rain* | Wind** | Luminosity | Snow |
|---|---|---|---|---|---|---|---|
| 1777745454 | 17.22° C | 84% | - | 0 mm | - | - | - |
| 1777740034 | 20.56° C | 84% | - | 0 mm | - | - | - |
| 1777737035 | 22.22° C | 69% | - | 0 mm | - | - | - |
| 1777732834 | 23.89° C | 65% | - | 0 mm | - | - | - |
| 1777729234 | 26.11° C | 57% | - | 0 mm | - | - | - |
| 1777721435 | 23.33° C | 66% | - | 0 mm | - | - | - |
| 1777716035 | 20.56° C | 72% | - | 0 mm | - | - | - |
| 1777712435 | 18.89° C | 75% | - | 0 mm | - | - | - |
| 1777707036 | 16.11° C | 82% | - | 0 mm | - | - | - |
| 1777704635 | 11.67° C | 98% | - | 0 mm | - | - | - |
| 1777703435 | 9.44° C | 99% | - | 0 mm | - | - | - |
| 1777702856 | 8.89° C | 99% | - | 0 mm | - | - | - |
| 1777701636 | 8.33° C | 99% | - | 0 mm | - | - | - |
| 1777698036 | 7.78° C | 99% | - | 0 mm | - | - | - |
| 1777691456 | 8.33° C | 99% | - | 0 mm | - | - | - |
| 1777690836 | 8.33° C | 99% | - | 0 mm | - | - | - |
| 1777687836 | 8.33° C | 99% | - | 0 mm | - | - | - |
| 1777685436 | 8.89° C | 99% | - | 0 mm | - | - | - |
| 1777682436 | 8.89° C | 99% | - | 0 mm | - | - | - |
| 1777681876 | 9.44° C | 99% | - | 0 mm | - | - | - |
| 1777678836 | 10° C | 99% | - | 0 mm | - | - | - |
| 1777676437 | 10.56° C | 99% | - | 0 mm | - | - | - |
| 1777674966 | 11.11° C | 99% | - | 0 mm | - | - | - |
| 1777670437 | 12.22° C | 99% | - | 0 mm | - | - | - |
| 1777669836 | 12.22° C | 99% | - | 0 mm | - | - | - |
* Rain latest hour (hover to see other rain measurements)
** Current wind speed in m/s (hover to see current wind gust speed)